sensor_id;sensor_type;location;lat;lon;timestamp;P1;durP1;ratioP1;P2;durP2;ratioP2
15061;SDS011;7630;50.306;8.566;2022-09-17T00:01:23;10.90;;;7.80;;
15061;SDS011;7630;50.306;8.566;2022-09-17T00:05:26;8.90;;;7.50;;
15061;SDS011;7630;50.306;8.566;2022-09-17T00:09:27;14.90;;;7.00;;
15061;SDS011;7630;50.306;8.566;2022-09-17T00:13:28;14.20;;;7.37;;
15061;SDS011;7630;50.306;8.566;2022-09-17T00:17:29;8.43;;;6.67;;
15061;SDS011;7630;50.306;8.566;2022-09-17T00:21:31;13.13;;;6.23;;
15061;SDS011;7630;50.306;8.566;2022-09-17T00:25:32;10.57;;;7.10;;
15061;SDS011;7630;50.306;8.566;2022-09-17T00:29:33;14.80;;;7.63;;
15061;SDS011;7630;50.306;8.566;2022-09-17T00:33:34;12.40;;;6.83;;
15061;SDS011;7630;50.306;8.566;2022-09-17T00:37:36;11.97;;;7.53;;
15061;SDS011;7630;50.306;8.566;2022-09-17T00:41:37;9.87;;;7.03;;
15061;SDS011;7630;50.306;8.566;2022-09-17T00:45:38;13.60;;;7.73;;
15061;SDS011;7630;50.306;8.566;2022-09-17T00:49:40;10.83;;;7.43;;
15061;SDS011;7630;50.306;8.566;2022-09-17T00:53:42;7.37;;;6.43;;
15061;SDS011;7630;50.306;8.566;2022-09-17T00:57:43;11.00;;;7.83;;
15061;SDS011;7630;50.306;8.566;2022-09-17T01:01:45;10.43;;;7.70;;
15061;SDS011;7630;50.306;8.566;2022-09-17T01:06:03;13.73;;;9.97;;
15061;SDS011;7630;50.306;8.566;2022-09-17T01:14:20;11.80;;;7.40;;
15061;SDS011;7630;50.306;8.566;2022-09-17T01:18:44;11.67;;;7.97;;
15061;SDS011;7630;50.306;8.566;2022-09-17T01:27:37;12.07;;;8.33;;
15061;SDS011;7630;50.306;8.566;2022-09-17T01:32:02;11.20;;;8.13;;
15061;SDS011;7630;50.306;8.566;2022-09-17T01:40:26;10.77;;;9.67;;
15061;SDS011;7630;50.306;8.566;2022-09-17T01:44:40;11.30;;;8.63;;
15061;SDS011;7630;50.306;8.566;2022-09-17T01:48:46;13.43;;;9.20;;
15061;SDS011;7630;50.306;8.566;2022-09-17T01:52:49;10.23;;;8.10;;
15061;SDS011;7630;50.306;8.566;2022-09-17T01:57:39;9.93;;;8.90;;
15061;SDS011;7630;50.306;8.566;2022-09-17T02:01:11;15.00;;;10.53;;
15061;SDS011;7630;50.306;8.566;2022-09-17T02:05:21;10.63;;;9.00;;
15061;SDS011;7630;50.306;8.566;2022-09-17T02:09:26;13.17;;;8.23;;
15061;SDS011;7630;50.306;8.566;2022-09-17T02:13:34;10.80;;;9.83;;
15061;SDS011;7630;50.306;8.566;2022-09-17T02:17:50;11.87;;;9.27;;
15061;SDS011;7630;50.306;8.566;2022-09-17T02:26:08;11.20;;;9.30;;
15061;SDS011;7630;50.306;8.566;2022-09-17T02:30:12;18.63;;;9.50;;
15061;SDS011;7630;50.306;8.566;2022-09-17T02:34:19;10.40;;;9.40;;
15061;SDS011;7630;50.306;8.566;2022-09-17T02:38:25;12.63;;;10.27;;
15061;SDS011;7630;50.306;8.566;2022-09-17T02:46:50;10.70;;;8.87;;
15061;SDS011;7630;50.306;8.566;2022-09-17T02:59:28;14.33;;;10.43;;
15061;SDS011;7630;50.306;8.566;2022-09-17T03:03:38;10.53;;;9.40;;
15061;SDS011;7630;50.306;8.566;2022-09-17T03:07:42;11.63;;;10.43;;
15061;SDS011;7630;50.306;8.566;2022-09-17T03:11:43;11.23;;;10.10;;
15061;SDS011;7630;50.306;8.566;2022-09-17T03:15:44;12.70;;;11.47;;
15061;SDS011;7630;50.306;8.566;2022-09-17T03:19:45;14.07;;;12.93;;
15061;SDS011;7630;50.306;8.566;2022-09-17T03:23:46;15.13;;;13.70;;
15061;SDS011;7630;50.306;8.566;2022-09-17T03:27:47;21.40;;;14.17;;
15061;SDS011;7630;50.306;8.566;2022-09-17T03:31:48;17.30;;;15.30;;
15061;SDS011;7630;50.306;8.566;2022-09-17T03:35:49;16.87;;;15.20;;
15061;SDS011;7630;50.306;8.566;2022-09-17T03:39:50;15.10;;;13.60;;
15061;SDS011;7630;50.306;8.566;2022-09-17T03:43:51;16.17;;;13.77;;
15061;SDS011;7630;50.306;8.566;2022-09-17T03:47:53;14.27;;;12.93;;
15061;SDS011;7630;50.306;8.566;2022-09-17T03:51:54;15.23;;;13.77;;
15061;SDS011;7630;50.306;8.566;2022-09-17T03:55:56;19.37;;;13.13;;
15061;SDS011;7630;50.306;8.566;2022-09-17T03:59:59;12.87;;;11.67;;
15061;SDS011;7630;50.306;8.566;2022-09-17T04:04:00;13.33;;;12.00;;
15061;SDS011;7630;50.306;8.566;2022-09-17T04:08:03;14.60;;;12.27;;
15061;SDS011;7630;50.306;8.566;2022-09-17T04:12:04;12.83;;;10.00;;
15061;SDS011;7630;50.306;8.566;2022-09-17T04:16:06;11.07;;;10.07;;
15061;SDS011;7630;50.306;8.566;2022-09-17T04:20:07;16.63;;;9.33;;
15061;SDS011;7630;50.306;8.566;2022-09-17T04:24:11;16.93;;;9.93;;
15061;SDS011;7630;50.306;8.566;2022-09-17T04:28:12;11.47;;;10.37;;
15061;SDS011;7630;50.306;8.566;2022-09-17T04:32:13;12.40;;;10.50;;
15061;SDS011;7630;50.306;8.566;2022-09-17T04:36:14;13.80;;;9.80;;
15061;SDS011;7630;50.306;8.566;2022-09-17T04:40:15;14.63;;;10.40;;
15061;SDS011;7630;50.306;8.566;2022-09-17T04:44:16;11.13;;;9.93;;
15061;SDS011;7630;50.306;8.566;2022-09-17T04:48:17;16.30;;;10.90;;
15061;SDS011;7630;50.306;8.566;2022-09-17T04:52:18;15.87;;;10.07;;
15061;SDS011;7630;50.306;8.566;2022-09-17T04:56:19;11.87;;;8.90;;
15061;SDS011;7630;50.306;8.566;2022-09-17T05:00:21;19.63;;;9.57;;
15061;SDS011;7630;50.306;8.566;2022-09-17T05:04:23;19.40;;;9.07;;
15061;SDS011;7630;50.306;8.566;2022-09-17T05:08:24;14.67;;;7.37;;
15061;SDS011;7630;50.306;8.566;2022-09-17T05:12:25;10.07;;;8.97;;
15061;SDS011;7630;50.306;8.566;2022-09-17T05:16:26;9.30;;;8.40;;
15061;SDS011;7630;50.306;8.566;2022-09-17T05:20:27;11.60;;;9.87;;
15061;SDS011;7630;50.306;8.566;2022-09-17T05:24:28;11.57;;;10.43;;
15061;SDS011;7630;50.306;8.566;2022-09-17T05:28:29;11.93;;;10.73;;
15061;SDS011;7630;50.306;8.566;2022-09-17T05:32:30;13.73;;;12.23;;
15061;SDS011;7630;50.306;8.566;2022-09-17T05:36:31;19.70;;;12.63;;
15061;SDS011;7630;50.306;8.566;2022-09-17T05:40:32;18.97;;;13.67;;
15061;SDS011;7630;50.306;8.566;2022-09-17T05:44:33;16.37;;;13.77;;
15061;SDS011;7630;50.306;8.566;2022-09-17T05:48:34;16.90;;;14.30;;
15061;SDS011;7630;50.306;8.566;2022-09-17T05:52:35;16.00;;;14.17;;
15061;SDS011;7630;50.306;8.566;2022-09-17T05:56:37;23.97;;;17.07;;
15061;SDS011;7630;50.306;8.566;2022-09-17T06:04:47;23.67;;;15.70;;
15061;SDS011;7630;50.306;8.566;2022-09-17T06:08:48;22.93;;;15.87;;
15061;SDS011;7630;50.306;8.566;2022-09-17T06:12:54;23.37;;;16.87;;
15061;SDS011;7630;50.306;8.566;2022-09-17T06:16:55;21.57;;;18.83;;
15061;SDS011;7630;50.306;8.566;2022-09-17T06:20:57;24.47;;;16.60;;
15061;SDS011;7630;50.306;8.566;2022-09-17T06:25:00;25.20;;;17.47;;
15061;SDS011;7630;50.306;8.566;2022-09-17T06:29:02;21.13;;;16.90;;
15061;SDS011;7630;50.306;8.566;2022-09-17T06:33:03;28.50;;;17.60;;
15061;SDS011;7630;50.306;8.566;2022-09-17T06:37:04;20.27;;;16.13;;
15061;SDS011;7630;50.306;8.566;2022-09-17T06:41:05;28.93;;;15.77;;
15061;SDS011;7630;50.306;8.566;2022-09-17T06:45:07;23.70;;;16.67;;
15061;SDS011;7630;50.306;8.566;2022-09-17T06:49:10;19.47;;;15.17;;
15061;SDS011;7630;50.306;8.566;2022-09-17T06:53:11;15.40;;;13.90;;
15061;SDS011;7630;50.306;8.566;2022-09-17T06:57:12;21.40;;;13.80;;
15061;SDS011;7630;50.306;8.566;2022-09-17T07:01:13;24.97;;;14.53;;
15061;SDS011;7630;50.306;8.566;2022-09-17T07:05:14;17.53;;;13.77;;
15061;SDS011;7630;50.306;8.566;2022-09-17T07:09:15;17.53;;;11.67;;
15061;SDS011;7630;50.306;8.566;2022-09-17T07:13:16;16.57;;;12.33;;
15061;SDS011;7630;50.306;8.566;2022-09-17T07:17:17;16.40;;;10.37;;
15061;SDS011;7630;50.306;8.566;2022-09-17T07:21:18;15.97;;;11.63;;
15061;SDS011;7630;50.306;8.566;2022-09-17T07:25:19;16.43;;;10.57;;
15061;SDS011;7630;50.306;8.566;2022-09-17T07:29:20;15.70;;;11.13;;
15061;SDS011;7630;50.306;8.566;2022-09-17T07:33:24;27.50;;;10.97;;
15061;SDS011;7630;50.306;8.566;2022-09-17T07:37:27;14.10;;;9.83;;
15061;SDS011;7630;50.306;8.566;2022-09-17T07:41:28;16.57;;;10.10;;
15061;SDS011;7630;50.306;8.566;2022-09-17T07:45:29;10.70;;;9.20;;
15061;SDS011;7630;50.306;8.566;2022-09-17T07:49:30;12.60;;;8.50;;
15061;SDS011;7630;50.306;8.566;2022-09-17T07:53:31;11.13;;;8.07;;
15061;SDS011;7630;50.306;8.566;2022-09-17T07:57:34;13.37;;;9.37;;
15061;SDS011;7630;50.306;8.566;2022-09-17T08:01:35;12.73;;;8.73;;
15061;SDS011;7630;50.306;8.566;2022-09-17T08:05:37;22.67;;;9.33;;
15061;SDS011;7630;50.306;8.566;2022-09-17T08:09:38;12.37;;;9.27;;
15061;SDS011;7630;50.306;8.566;2022-09-17T08:13:39;10.00;;;8.47;;
15061;SDS011;7630;50.306;8.566;2022-09-17T08:17:43;11.93;;;8.07;;
15061;SDS011;7630;50.306;8.566;2022-09-17T08:21:46;14.87;;;7.80;;
15061;SDS011;7630;50.306;8.566;2022-09-17T08:25:51;7.63;;;6.93;;
15061;SDS011;7630;50.306;8.566;2022-09-17T08:29:54;8.47;;;6.53;;
15061;SDS011;7630;50.306;8.566;2022-09-17T08:33:55;9.63;;;6.37;;
15061;SDS011;7630;50.306;8.566;2022-09-17T08:37:56;8.93;;;6.47;;
15061;SDS011;7630;50.306;8.566;2022-09-17T08:42:04;10.47;;;6.77;;
15061;SDS011;7630;50.306;8.566;2022-09-17T08:46:13;10.10;;;6.37;;
15061;SDS011;7630;50.306;8.566;2022-09-17T08:50:35;5.87;;;5.43;;
15061;SDS011;7630;50.306;8.566;2022-09-17T09:07:10;11.03;;;4.83;;
15061;SDS011;7630;50.306;8.566;2022-09-17T09:11:15;9.80;;;4.30;;
15061;SDS011;7630;50.306;8.566;2022-09-17T09:19:43;4.87;;;3.07;;
15061;SDS011;7630;50.306;8.566;2022-09-17T09:27:58;6.33;;;4.07;;
15061;SDS011;7630;50.306;8.566;2022-09-17T09:32:17;12.00;;;4.60;;
15061;SDS011;7630;50.306;8.566;2022-09-17T09:36:17;15.63;;;5.57;;
15061;SDS011;7630;50.306;8.566;2022-09-17T09:40:27;7.07;;;5.87;;
15061;SDS011;7630;50.306;8.566;2022-09-17T09:44:32;8.00;;;5.93;;
15061;SDS011;7630;50.306;8.566;2022-09-17T09:48:37;6.43;;;4.77;;
15061;SDS011;7630;50.306;8.566;2022-09-17T10:01:17;8.17;;;5.27;;
15061;SDS011;7630;50.306;8.566;2022-09-17T10:05:20;8.37;;;5.10;;
15061;SDS011;7630;50.306;8.566;2022-09-17T10:09:21;7.57;;;4.70;;
15061;SDS011;7630;50.306;8.566;2022-09-17T10:13:22;36.03;;;6.37;;
15061;SDS011;7630;50.306;8.566;2022-09-17T10:17:25;41.37;;;11.33;;
15061;SDS011;7630;50.306;8.566;2022-09-17T10:21:34;76.20;;;12.57;;
15061;SDS011;7630;50.306;8.566;2022-09-17T10:25:42;41.87;;;9.43;;
15061;SDS011;7630;50.306;8.566;2022-09-17T10:29:44;6.30;;;4.30;;
15061;SDS011;7630;50.306;8.566;2022-09-17T10:33:52;5.93;;;3.00;;
15061;SDS011;7630;50.306;8.566;2022-09-17T10:37:58;6.30;;;3.13;;
15061;SDS011;7630;50.306;8.566;2022-09-17T10:42:11;10.83;;;4.93;;
15061;SDS011;7630;50.306;8.566;2022-09-17T10:46:11;4.83;;;3.07;;
15061;SDS011;7630;50.306;8.566;2022-09-17T10:50:24;6.03;;;2.90;;
15061;SDS011;7630;50.306;8.566;2022-09-17T10:58:55;12.97;;;4.17;;
15061;SDS011;7630;50.306;8.566;2022-09-17T11:07:31;79.93;;;13.70;;
15061;SDS011;7630;50.306;8.566;2022-09-17T11:37:42;5.00;;;1.90;;
15061;SDS011;7630;50.306;8.566;2022-09-17T11:41:57;5.33;;;2.00;;
15061;SDS011;7630;50.306;8.566;2022-09-17T11:54:24;6.57;;;2.03;;
15061;SDS011;7630;50.306;8.566;2022-09-17T12:07:21;6.33;;;1.80;;
15061;SDS011;7630;50.306;8.566;2022-09-17T12:15:37;2.83;;;1.10;;
15061;SDS011;7630;50.306;8.566;2022-09-17T12:19:42;4.00;;;1.67;;
15061;SDS011;7630;50.306;8.566;2022-09-17T12:23:47;3.70;;;2.03;;
15061;SDS011;7630;50.306;8.566;2022-09-17T12:27:55;6.00;;;1.87;;
15061;SDS011;7630;50.306;8.566;2022-09-17T12:40:37;2.07;;;1.17;;
15061;SDS011;7630;50.306;8.566;2022-09-17T12:49:02;7.53;;;1.67;;
15061;SDS011;7630;50.306;8.566;2022-09-17T12:57:52;2.67;;;1.50;;
15061;SDS011;7630;50.306;8.566;2022-09-17T13:06:19;1.60;;;1.03;;
15061;SDS011;7630;50.306;8.566;2022-09-17T13:23:32;2.43;;;1.20;;
15061;SDS011;7630;50.306;8.566;2022-09-17T13:27:36;3.37;;;1.20;;
15061;SDS011;7630;50.306;8.566;2022-09-17T13:39:51;5.33;;;4.77;;
15061;SDS011;7630;50.306;8.566;2022-09-17T13:43:51;3.63;;;2.83;;
15061;SDS011;7630;50.306;8.566;2022-09-17T13:47:59;3.50;;;1.20;;
15061;SDS011;7630;50.306;8.566;2022-09-17T13:52:11;4.23;;;1.83;;
15061;SDS011;7630;50.306;8.566;2022-09-17T13:56:33;3.70;;;1.67;;
15061;SDS011;7630;50.306;8.566;2022-09-17T14:00:58;2.03;;;1.73;;
15061;SDS011;7630;50.306;8.566;2022-09-17T14:05:22;3.80;;;1.73;;
15061;SDS011;7630;50.306;8.566;2022-09-17T14:09:43;3.33;;;2.20;;
15061;SDS011;7630;50.306;8.566;2022-09-17T14:17:48;4.80;;;1.90;;
15061;SDS011;7630;50.306;8.566;2022-09-17T14:26:11;1.93;;;1.47;;
15061;SDS011;7630;50.306;8.566;2022-09-17T14:30:28;5.70;;;1.60;;
15061;SDS011;7630;50.306;8.566;2022-09-17T14:34:29;1.90;;;1.30;;
15061;SDS011;7630;50.306;8.566;2022-09-17T14:42:44;1.43;;;0.90;;
15061;SDS011;7630;50.306;8.566;2022-09-17T14:46:55;2.17;;;1.23;;
15061;SDS011;7630;50.306;8.566;2022-09-17T15:08:18;1.13;;;0.87;;
15061;SDS011;7630;50.306;8.566;2022-09-17T15:12:23;0.60;;;0.60;;
15061;SDS011;7630;50.306;8.566;2022-09-17T15:16:26;3.37;;;1.53;;
15061;SDS011;7630;50.306;8.566;2022-09-17T15:20:30;3.73;;;1.10;;
15061;SDS011;7630;50.306;8.566;2022-09-17T15:24:44;4.53;;;1.93;;
15061;SDS011;7630;50.306;8.566;2022-09-17T15:28:58;3.83;;;2.53;;
15061;SDS011;7630;50.306;8.566;2022-09-17T15:33:00;1.40;;;1.30;;
15061;SDS011;7630;50.306;8.566;2022-09-17T15:37:04;2.20;;;0.97;;
15061;SDS011;7630;50.306;8.566;2022-09-17T15:41:23;4.57;;;2.43;;
15061;SDS011;7630;50.306;8.566;2022-09-17T15:45:27;1.37;;;1.10;;
15061;SDS011;7630;50.306;8.566;2022-09-17T15:53:49;1.53;;;1.20;;
15061;SDS011;7630;50.306;8.566;2022-09-17T15:57:47;1.07;;;0.90;;
15061;SDS011;7630;50.306;8.566;2022-09-17T16:01:49;3.87;;;1.00;;
15061;SDS011;7630;50.306;8.566;2022-09-17T16:05:52;3.27;;;1.00;;
15061;SDS011;7630;50.306;8.566;2022-09-17T16:09:55;2.87;;;1.50;;
15061;SDS011;7630;50.306;8.566;2022-09-17T16:13:59;1.50;;;1.10;;
15061;SDS011;7630;50.306;8.566;2022-09-17T16:18:00;1.90;;;1.10;;
15061;SDS011;7630;50.306;8.566;2022-09-17T16:22:01;2.07;;;1.00;;
15061;SDS011;7630;50.306;8.566;2022-09-17T16:26:03;1.40;;;1.03;;
15061;SDS011;7630;50.306;8.566;2022-09-17T16:30:06;4.63;;;1.33;;
15061;SDS011;7630;50.306;8.566;2022-09-17T16:34:09;2.67;;;1.50;;
15061;SDS011;7630;50.306;8.566;2022-09-17T16:38:10;4.53;;;3.03;;
15061;SDS011;7630;50.306;8.566;2022-09-17T16:42:12;1.87;;;1.50;;
15061;SDS011;7630;50.306;8.566;2022-09-17T16:46:13;1.73;;;1.00;;
15061;SDS011;7630;50.306;8.566;2022-09-17T16:50:15;3.93;;;1.77;;
15061;SDS011;7630;50.306;8.566;2022-09-17T16:54:16;2.43;;;1.40;;
15061;SDS011;7630;50.306;8.566;2022-09-17T16:58:17;1.10;;;1.00;;
15061;SDS011;7630;50.306;8.566;2022-09-17T17:02:19;2.77;;;1.33;;
15061;SDS011;7630;50.306;8.566;2022-09-17T17:06:20;0.83;;;0.83;;
15061;SDS011;7630;50.306;8.566;2022-09-17T17:10:22;1.97;;;1.40;;
15061;SDS011;7630;50.306;8.566;2022-09-17T17:14:25;1.83;;;0.93;;
15061;SDS011;7630;50.306;8.566;2022-09-17T17:18:26;1.23;;;1.03;;
15061;SDS011;7630;50.306;8.566;2022-09-17T17:22:27;3.23;;;1.70;;
15061;SDS011;7630;50.306;8.566;2022-09-17T17:26:28;3.63;;;1.77;;
15061;SDS011;7630;50.306;8.566;2022-09-17T17:30:30;1.20;;;1.10;;
15061;SDS011;7630;50.306;8.566;2022-09-17T17:34:34;2.73;;;1.80;;
15061;SDS011;7630;50.306;8.566;2022-09-17T17:38:35;0.97;;;0.97;;
15061;SDS011;7630;50.306;8.566;2022-09-17T17:42:36;2.80;;;1.80;;
15061;SDS011;7630;50.306;8.566;2022-09-17T17:46:40;2.27;;;1.40;;
15061;SDS011;7630;50.306;8.566;2022-09-17T17:50:41;1.77;;;1.67;;
15061;SDS011;7630;50.306;8.566;2022-09-17T17:54:42;2.60;;;1.65;;
15061;SDS011;7630;50.306;8.566;2022-09-17T17:58:43;3.93;;;2.00;;
15061;SDS011;7630;50.306;8.566;2022-09-17T18:02:44;3.67;;;1.93;;
15061;SDS011;7630;50.306;8.566;2022-09-17T18:06:45;7.07;;;2.33;;
15061;SDS011;7630;50.306;8.566;2022-09-17T18:10:54;2.93;;;1.70;;
15061;SDS011;7630;50.306;8.566;2022-09-17T18:14:57;3.23;;;1.70;;
15061;SDS011;7630;50.306;8.566;2022-09-17T18:18:58;3.47;;;2.13;;
15061;SDS011;7630;50.306;8.566;2022-09-17T18:22:59;2.20;;;1.63;;
15061;SDS011;7630;50.306;8.566;2022-09-17T18:27:00;7.70;;;2.30;;
15061;SDS011;7630;50.306;8.566;2022-09-17T18:31:05;7.43;;;1.70;;
15061;SDS011;7630;50.306;8.566;2022-09-17T18:35:07;6.03;;;4.30;;
15061;SDS011;7630;50.306;8.566;2022-09-17T18:39:09;4.47;;;3.20;;
15061;SDS011;7630;50.306;8.566;2022-09-17T18:43:14;2.10;;;1.93;;
15061;SDS011;7630;50.306;8.566;2022-09-17T18:47:16;5.40;;;2.13;;
15061;SDS011;7630;50.306;8.566;2022-09-17T18:51:17;5.13;;;1.80;;
15061;SDS011;7630;50.306;8.566;2022-09-17T18:55:18;5.77;;;2.97;;
15061;SDS011;7630;50.306;8.566;2022-09-17T18:59:19;4.47;;;2.10;;
15061;SDS011;7630;50.306;8.566;2022-09-17T19:03:20;4.20;;;2.53;;
15061;SDS011;7630;50.306;8.566;2022-09-17T19:07:21;5.00;;;2.77;;
15061;SDS011;7630;50.306;8.566;2022-09-17T19:11:23;4.33;;;2.93;;
15061;SDS011;7630;50.306;8.566;2022-09-17T19:15:24;2.97;;;2.53;;
15061;SDS011;7630;50.306;8.566;2022-09-17T19:19:25;6.17;;;3.70;;
15061;SDS011;7630;50.306;8.566;2022-09-17T19:23:26;3.53;;;2.97;;
15061;SDS011;7630;50.306;8.566;2022-09-17T19:27:28;4.90;;;3.00;;
15061;SDS011;7630;50.306;8.566;2022-09-17T19:31:29;12.40;;;3.77;;
15061;SDS011;7630;50.306;8.566;2022-09-17T19:35:30;2.83;;;2.60;;
15061;SDS011;7630;50.306;8.566;2022-09-17T19:39:31;5.80;;;2.67;;
15061;SDS011;7630;50.306;8.566;2022-09-17T19:43:33;7.90;;;2.60;;
15061;SDS011;7630;50.306;8.566;2022-09-17T19:47:34;7.77;;;2.77;;
15061;SDS011;7630;50.306;8.566;2022-09-17T19:51:36;8.15;;;3.12;;
15061;SDS011;7630;50.306;8.566;2022-09-17T19:55:40;7.33;;;3.20;;
15061;SDS011;7630;50.306;8.566;2022-09-17T19:59:42;4.27;;;2.90;;
15061;SDS011;7630;50.306;8.566;2022-09-17T20:03:43;9.90;;;2.80;;
15061;SDS011;7630;50.306;8.566;2022-09-17T20:07:45;7.07;;;3.03;;
15061;SDS011;7630;50.306;8.566;2022-09-17T20:11:47;7.20;;;2.33;;
15061;SDS011;7630;50.306;8.566;2022-09-17T20:15:48;5.73;;;3.13;;
15061;SDS011;7630;50.306;8.566;2022-09-17T20:19:49;11.77;;;2.30;;
15061;SDS011;7630;50.306;8.566;2022-09-17T20:23:51;11.93;;;4.20;;
15061;SDS011;7630;50.306;8.566;2022-09-17T20:27:52;6.57;;;2.77;;
15061;SDS011;7630;50.306;8.566;2022-09-17T20:31:53;9.57;;;3.23;;
15061;SDS011;7630;50.306;8.566;2022-09-17T20:36:01;10.77;;;3.43;;
15061;SDS011;7630;50.306;8.566;2022-09-17T20:40:04;6.27;;;3.27;;
15061;SDS011;7630;50.306;8.566;2022-09-17T20:44:07;13.70;;;3.20;;
15061;SDS011;7630;50.306;8.566;2022-09-17T20:48:08;14.80;;;2.97;;
15061;SDS011;7630;50.306;8.566;2022-09-17T20:52:09;8.27;;;2.77;;
15061;SDS011;7630;50.306;8.566;2022-09-17T20:56:11;12.77;;;2.63;;
15061;SDS011;7630;50.306;8.566;2022-09-17T21:00:14;9.17;;;3.67;;
15061;SDS011;7630;50.306;8.566;2022-09-17T21:04:18;5.80;;;2.63;;
15061;SDS011;7630;50.306;8.566;2022-09-17T21:08:20;8.57;;;4.10;;
15061;SDS011;7630;50.306;8.566;2022-09-17T21:12:21;5.00;;;3.13;;
15061;SDS011;7630;50.306;8.566;2022-09-17T21:16:24;5.37;;;2.30;;
15061;SDS011;7630;50.306;8.566;2022-09-17T21:20:26;7.50;;;3.77;;
15061;SDS011;7630;50.306;8.566;2022-09-17T21:24:27;8.10;;;3.20;;
15061;SDS011;7630;50.306;8.566;2022-09-17T21:28:29;7.23;;;2.90;;
15061;SDS011;7630;50.306;8.566;2022-09-17T21:32:31;11.23;;;3.40;;
15061;SDS011;7630;50.306;8.566;2022-09-17T21:36:33;6.20;;;3.37;;
15061;SDS011;7630;50.306;8.566;2022-09-17T21:40:36;7.23;;;4.03;;
15061;SDS011;7630;50.306;8.566;2022-09-17T21:44:37;8.00;;;4.27;;
15061;SDS011;7630;50.306;8.566;2022-09-17T21:48:42;9.73;;;4.63;;
15061;SDS011;7630;50.306;8.566;2022-09-17T21:52:47;7.67;;;4.00;;
15061;SDS011;7630;50.306;8.566;2022-09-17T21:56:48;6.13;;;4.80;;
15061;SDS011;7630;50.306;8.566;2022-09-17T22:00:50;8.33;;;4.90;;
15061;SDS011;7630;50.306;8.566;2022-09-17T22:09:02;18.90;;;8.07;;
15061;SDS011;7630;50.306;8.566;2022-09-17T22:13:05;11.07;;;6.70;;
15061;SDS011;7630;50.306;8.566;2022-09-17T22:17:06;13.30;;;6.13;;
15061;SDS011;7630;50.306;8.566;2022-09-17T22:21:14;14.63;;;6.40;;
15061;SDS011;7630;50.306;8.566;2022-09-17T22:25:23;14.27;;;5.97;;
15061;SDS011;7630;50.306;8.566;2022-09-17T22:29:24;17.47;;;6.50;;
15061;SDS011;7630;50.306;8.566;2022-09-17T22:33:29;10.80;;;5.23;;
15061;SDS011;7630;50.306;8.566;2022-09-17T22:37:34;14.83;;;5.67;;
15061;SDS011;7630;50.306;8.566;2022-09-17T22:41:36;11.77;;;5.13;;
15061;SDS011;7630;50.306;8.566;2022-09-17T22:45:41;9.37;;;6.10;;
15061;SDS011;7630;50.306;8.566;2022-09-17T22:49:42;16.10;;;6.67;;
15061;SDS011;7630;50.306;8.566;2022-09-17T22:53:43;9.70;;;6.17;;
15061;SDS011;7630;50.306;8.566;2022-09-17T22:57:45;15.13;;;5.83;;
15061;SDS011;7630;50.306;8.566;2022-09-17T23:01:46;11.90;;;6.10;;
15061;SDS011;7630;50.306;8.566;2022-09-17T23:05:47;10.30;;;6.00;;
15061;SDS011;7630;50.306;8.566;2022-09-17T23:09:49;6.03;;;4.90;;
15061;SDS011;7630;50.306;8.566;2022-09-17T23:13:51;10.17;;;5.57;;
15061;SDS011;7630;50.306;8.566;2022-09-17T23:17:56;11.63;;;6.40;;
15061;SDS011;7630;50.306;8.566;2022-09-17T23:21:57;12.33;;;5.47;;
15061;SDS011;7630;50.306;8.566;2022-09-17T23:26:10;12.73;;;8.10;;
15061;SDS011;7630;50.306;8.566;2022-09-17T23:30:09;10.67;;;6.10;;
15061;SDS011;7630;50.306;8.566;2022-09-17T23:34:11;9.93;;;6.73;;
15061;SDS011;7630;50.306;8.566;2022-09-17T23:38:12;8.50;;;5.93;;
15061;SDS011;7630;50.306;8.566;2022-09-17T23:42:14;15.10;;;6.50;;
15061;SDS011;7630;50.306;8.566;2022-09-17T23:46:16;15.47;;;8.10;;
15061;SDS011;7630;50.306;8.566;2022-09-17T23:50:18;9.87;;;6.60;;
15061;SDS011;7630;50.306;8.566;2022-09-17T23:54:19;7.77;;;5.63;;
15061;SDS011;7630;50.306;8.566;2022-09-17T23:58:20;9.63;;;6.90;;
